Aérodrome :
LOGIN :

S'inscrire | Disclaimer

   EN    FR    IT 

 










Légende :    VFR   VFR Marginal   IFR   IFR Intensif   IFR Très Intensif
Visi : 
Plafond : 
>= 8 km
>= 3000ft
5 à 8 km
1000 à 3000 ft
1500m à 5 km
500 à 1000 ft
800 à 1500m
200 à 500 ft
< 800m
< 200 ft
Symboles :   Orages  Brouillard  Fortes neiges  Fortes précipitations  Vent > 20 kt
SIGMETs :   Divers  Orages  Givrage  Turbulence  Onde Orograph.  Cendres Volcan.






- Altitude de l'aérodrome : 502 ft
- Code IATA : ORK


EICK - Cork

DERNIER METAR :
  • 241800Z 29014KT 9999 SCT017CB 06/03 Q1008 NOSIG

METARs EXPIRÉS :
  • 241730Z 28014KT 9999 -SHRA BKN017CB SCT250 07/04 Q1008 NOSIG
  • 241700Z 29015KT 9999 BKN017CB SCT250 07/04 Q1008 NOSIG
  • 241630Z 29013KT 9999 SCT017CB SCT250 08/04 Q1008 NOSIG
  • 241600Z 29017KT 9999 BKN017CB SCT250 08/03 Q1007 NOSIG
  • 241530Z 29017KT 9999 SCT017CB SCT250 09/03 Q1007 NOSIG

TAF TAF EICK
Valide du 24 à 18h jusqu'au 25 à 18h UTC


241700Z 2418/2518 29018KT 9999 SCT018 BKN025
TEMPO 2418/2518 -SHRAGS SCT018CB BKN020
BECMG 2418/2420 26012KT
BECMG 2510/2512 28020G32KT
PROB30
TEMPO 2511/2518 28022G37KT 3000 SHGS BKN012



MET'MAP, la Météo Aéronautique d'un coup d'oeil ! - Copyright ORBIFLY Décembre 2007 - Disclaimer

ORBIFLY MET'MAP TEAM :

Programmation & Développement : Alexandra Zaïnal
Sur une idée originale de : Baudouin d'Aumeries
Assistance à la programmation : Marc-Olivier Méhu
Soutien technique & logistique : Manuel Goepfert

Contact : metmap@orbifly.com




SOURCES & CREDITS :

   NOAA